Time;durP1;ratioP1;P1;durP2;ratioP2;P2;SDS_P1;SDS_P2;PMS_P1;PMS_P2;Temp;Humidity;BMP_temperature;BMP_pressure;BME280_temperature;BME280_humidity;BME280_pressure;Samples;Min_cycle;Max_cycle;Signal;HPM_P1;HPM_P2
2022/04/25 00:00:31;;;;;;;7.00;5.32;;;9.60;97.80;;;;;;5086255;28;20418;-41
2022/04/25 00:02:58;;;;;;;10.85;6.82;;;9.60;98.00;;;;;;5095809;28;20119;-41
2022/04/25 00:05:24;;;;;;;9.38;6.85;;;9.60;98.50;;;;;;5085817;28;20032;-43
2022/04/25 00:07:49;;;;;;;8.27;6.20;;;9.50;98.40;;;;;;5096514;28;20040;-41
2022/04/25 00:10:15;;;;;;;8.82;6.00;;;9.50;98.40;;;;;;5084638;28;20027;-42
2022/04/25 00:12:40;;;;;;;8.93;6.07;;;9.50;98.50;;;;;;5097432;28;20034;-41
2022/04/25 00:15:07;;;;;;;8.57;6.15;;;9.50;98.50;;;;;;5085122;28;20031;-42
2022/04/25 00:17:32;;;;;;;8.25;6.63;;;9.50;98.80;;;;;;5096212;28;20118;-43
2022/04/25 00:19:58;;;;;;;7.45;5.95;;;9.40;98.90;;;;;;5085452;28;20028;-40
2022/04/25 00:22:24;;;;;;;8.98;6.55;;;9.40;99.00;;;;;;5095083;28;20030;-42
2022/04/25 00:24:50;;;;;;;9.88;6.70;;;9.30;99.10;;;;;;5086203;28;20085;-42
2022/04/25 00:27:16;;;;;;;7.55;6.32;;;9.30;99.50;;;;;;5092910;28;20026;-43
2022/04/25 00:29:41;;;;;;;9.10;6.90;;;9.30;99.60;;;;;;5099180;28;20032;-40
2022/04/25 00:32:08;;;;;;;11.13;6.38;;;9.20;99.70;;;;;;5099137;28;20111;-42
2022/04/25 00:34:34;;;;;;;8.73;6.15;;;9.20;99.80;;;;;;5101095;28;20118;-40
2022/04/25 00:37:00;;;;;;;7.50;6.43;;;9.20;99.90;;;;;;5104947;28;20023;-41
2022/04/25 00:39:25;;;;;;;9.63;6.30;;;9.10;99.90;;;;;;5099735;28;20030;-42
2022/04/25 00:41:51;;;;;;;9.05;6.22;;;9.10;99.90;;;;;;5107808;28;20541;-42
2022/04/25 00:44:16;;;;;;;9.65;7.20;;;9.10;99.90;;;;;;5096764;28;20035;-40
2022/04/25 00:46:44;;;;;;;10.07;6.88;;;9.10;99.90;;;;;;5107360;28;20069;-42
2022/04/25 00:49:09;;;;;;;10.45;6.43;;;9.10;99.90;;;;;;5097687;28;20019;-43
2022/04/25 00:51:35;;;;;;;10.07;7.53;;;9.10;99.90;;;;;;5107796;28;20024;-40
2022/04/25 00:54:01;;;;;;;10.65;7.05;;;9.10;99.90;;;;;;5100930;28;20020;-42
2022/04/25 00:56:26;;;;;;;9.43;7.10;;;9.00;99.90;;;;;;5087991;28;20047;-39
2022/04/25 00:58:52;;;;;;;9.00;7.18;;;9.00;99.90;;;;;;5099607;28;20442;-41
2022/04/25 01:01:18;;;;;;;8.70;6.53;;;9.00;99.90;;;;;;5088641;28;20032;-42
2022/04/25 01:03:44;;;;;;;8.60;6.63;;;9.00;99.90;;;;;;5098681;28;20026;-41
2022/04/25 01:06:10;;;;;;;11.20;7.50;;;8.90;99.90;;;;;;5089230;28;20032;-41
2022/04/25 01:08:37;;;;;;;9.05;6.93;;;8.90;99.90;;;;;;5095981;28;20019;-42
2022/04/25 01:11:03;;;;;;;9.55;6.20;;;8.90;99.90;;;;;;5092414;28;20036;-39
2022/04/25 01:13:29;;;;;;;10.23;6.55;;;8.90;99.90;;;;;;5093131;28;20035;-43
2022/04/25 01:15:57;;;;;;;10.98;7.78;;;8.80;99.90;;;;;;5094620;28;20403;-43
2022/04/25 01:18:23;;;;;;;11.57;7.13;;;8.80;99.90;;;;;;5091120;28;20031;-43
2022/04/25 01:20:52;;;;;;;11.75;7.15;;;8.70;99.90;;;;;;5096443;28;20092;-42
2022/04/25 01:28:54;;;;;;;10.98;7.57;;;8.70;99.90;;;;;;5090079;28;20043;-44
2022/04/25 01:31:20;;;;;;;7.65;6.65;;;8.60;99.90;;;;;;5087890;28;20384;-41
2022/04/25 01:33:45;;;;;;;8.82;6.95;;;8.50;99.90;;;;;;5095222;28;20039;-41
2022/04/25 01:36:12;;;;;;;8.20;6.80;;;8.50;99.90;;;;;;5097993;28;20036;-41
2022/04/25 01:38:37;;;;;;;12.45;6.95;;;8.40;99.90;;;;;;5106744;28;20050;-43
2022/04/25 01:41:03;;;;;;;10.15;6.70;;;8.30;99.90;;;;;;5095989;28;20371;-42
2022/04/25 01:43:28;;;;;;;8.68;6.72;;;8.30;99.90;;;;;;5106658;28;20031;-42
2022/04/25 01:45:54;;;;;;;11.43;7.45;;;8.30;99.90;;;;;;5094837;28;20031;-42
2022/04/25 01:48:22;;;;;;;11.63;7.38;;;8.20;99.90;;;;;;5107137;28;20051;-39
2022/04/25 01:50:49;;;;;;;9.25;7.70;;;8.20;99.90;;;;;;5094660;28;20035;-42
2022/04/25 01:53:15;;;;;;;9.82;7.30;;;8.10;99.90;;;;;;5107346;28;20069;-39
2022/04/25 01:55:41;;;;;;;8.65;7.00;;;8.00;99.90;;;;;;5094009;28;20040;-41
2022/04/25 01:58:06;;;;;;;8.60;7.28;;;8.00;99.90;;;;;;5107425;28;20418;-40
2022/04/25 02:00:33;;;;;;;10.35;7.05;;;8.00;99.90;;;;;;5097101;28;20035;-42
2022/04/25 02:02:58;;;;;;;10.32;7.40;;;7.90;99.90;;;;;;5105085;28;20027;-42
2022/04/25 02:05:26;;;;;;;8.95;6.32;;;7.90;99.90;;;;;;5099161;28;20032;-42
2022/04/25 02:07:52;;;;;;;10.75;7.35;;;7.90;99.90;;;;;;5102595;28;20027;-43
2022/04/25 02:10:17;;;;;;;10.80;7.82;;;7.90;99.90;;;;;;5101572;28;20027;-41
2022/04/25 02:12:43;;;;;;;10.05;7.72;;;7.80;99.90;;;;;;5099438;28;20024;-41
2022/04/25 02:15:12;;;;;;;13.23;7.60;;;7.80;99.90;;;;;;5103902;28;20027;-43
2022/04/25 02:17:38;;;;;;;11.95;7.70;;;7.80;99.90;;;;;;5097721;28;20035;-41
2022/04/25 02:20:04;;;;;;;11.88;8.07;;;7.80;99.90;;;;;;5105919;28;20027;-41
2022/04/25 02:22:29;;;;;;;15.18;8.85;;;7.70;99.90;;;;;;5094791;28;20055;-40
2022/04/25 02:24:55;;;;;;;11.07;8.55;;;7.70;99.90;;;;;;5105540;28;20031;-40
2022/04/25 02:27:21;;;;;;;11.68;8.80;;;7.70;99.90;;;;;;5095967;28;20012;-41
2022/04/25 02:29:48;;;;;;;11.50;7.97;;;7.70;99.90;;;;;;5094972;28;20028;-42
2022/04/25 02:32:13;;;;;;;10.68;8.35;;;7.60;99.90;;;;;;5099151;28;20016;-42
2022/04/25 02:34:40;;;;;;;11.82;8.55;;;7.60;99.90;;;;;;5086264;28;20024;-41
2022/04/25 02:37:06;;;;;;;10.10;7.60;;;7.50;99.90;;;;;;5099055;28;20073;-44
2022/04/25 02:39:34;;;;;;;11.38;8.30;;;7.50;99.90;;;;;;5086241;28;20586;-41
2022/04/25 02:42:00;;;;;;;11.73;7.57;;;7.50;99.90;;;;;;5096757;28;20028;-41
2022/04/25 02:44:25;;;;;;;9.48;7.03;;;7.40;99.90;;;;;;5087259;28;20074;-42
2022/04/25 02:46:51;;;;;;;13.13;7.93;;;7.40;99.90;;;;;;5094481;28;20572;-42
2022/04/25 02:49:16;;;;;;;11.10;8.30;;;7.40;99.90;;;;;;5090324;28;20035;-40
2022/04/25 02:51:43;;;;;;;9.70;7.45;;;7.40;99.90;;;;;;5091066;28;20364;-42
2022/04/25 02:54:09;;;;;;;16.00;8.20;;;7.30;99.90;;;;;;5093044;28;20031;-41
2022/04/25 02:56:34;;;;;;;9.85;8.00;;;7.30;99.90;;;;;;5087924;28;20840;-42
2022/04/25 02:59:00;;;;;;;13.25;8.80;;;7.30;99.90;;;;;;5095371;28;20024;-42
2022/04/25 03:01:26;;;;;;;8.52;6.70;;;7.20;99.90;;;;;;5086674;28;20028;-42
2022/04/25 03:03:51;;;;;;;10.63;8.10;;;7.20;99.90;;;;;;5097519;28;20179;-42
2022/04/25 03:06:17;;;;;;;11.88;8.88;;;7.20;99.90;;;;;;5086220;28;20802;-43
2022/04/25 03:08:42;;;;;;;11.02;7.95;;;7.10;99.90;;;;;;5097972;28;20772;-41
2022/04/25 03:11:09;;;;;;;11.98;8.15;;;7.10;99.90;;;;;;5086502;28;20027;-40
2022/04/25 03:13:35;;;;;;;12.40;8.07;;;7.10;99.90;;;;;;5098284;28;20023;-40
2022/04/25 03:16:05;;;;;;;10.23;8.07;;;7.10;99.90;;;;;;5086474;28;20055;-41
2022/04/25 03:18:31;;;;;;;10.75;8.52;;;7.10;99.90;;;;;;5097321;28;20023;-40
2022/04/25 03:20:57;;;;;;;12.35;8.73;;;7.00;99.90;;;;;;5085870;28;20024;-40
2022/04/25 03:23:23;;;;;;;15.73;8.95;;;7.00;99.90;;;;;;5096536;28;20024;-43
2022/04/25 03:25:50;;;;;;;11.40;8.85;;;6.90;99.90;;;;;;5087370;28;20039;-42
2022/04/25 03:28:16;;;;;;;12.65;9.15;;;6.80;99.90;;;;;;5094033;28;20099;-41
2022/04/25 03:30:42;;;;;;;10.85;9.25;;;6.80;99.90;;;;;;5105564;28;20028;-41
2022/04/25 03:33:08;;;;;;;12.95;9.73;;;6.80;99.90;;;;;;5101149;28;20019;-39
2022/04/25 03:35:34;;;;;;;13.85;9.05;;;6.80;99.90;;;;;;5100458;28;20036;-40
2022/04/25 03:38:00;;;;;;;12.52;9.43;;;6.80;99.90;;;;;;5104661;28;20497;-41
2022/04/25 03:40:26;;;;;;;12.65;8.73;;;6.80;99.90;;;;;;5095810;28;20185;-38
2022/04/25 03:42:53;;;;;;;12.57;9.45;;;6.80;99.90;;;;;;5104525;28;20415;-44
2022/04/25 03:45:19;;;;;;;12.15;9.35;;;6.80;99.90;;;;;;5093762;28;20134;-41
2022/04/25 03:47:47;;;;;;;11.35;9.25;;;6.90;99.90;;;;;;5103598;28;20126;-40
2022/04/25 03:50:14;;;;;;;15.52;9.57;;;6.90;99.90;;;;;;5094242;28;20035;-41
2022/04/25 03:52:42;;;;;;;13.38;9.43;;;6.90;99.90;;;;;;5105073;28;20020;-43
2022/04/25 03:57:55;;;;;;;15.20;9.23;;;7.10;99.90;;;;;;5104921;28;20063;-42
2022/04/25 04:00:20;;;;;;;15.50;9.98;;;7.10;99.90;;;;;;5093864;28;20036;-43
2022/04/25 04:02:46;;;;;;;12.38;9.65;;;7.20;99.90;;;;;;5104465;28;20482;-42
2022/04/25 04:05:13;;;;;;;10.63;8.90;;;7.20;99.90;;;;;;5092278;28;20126;-42
2022/04/25 04:07:40;;;;;;;13.77;9.43;;;7.30;99.90;;;;;;5103915;28;20139;-42
2022/04/25 04:10:06;;;;;;;11.50;9.18;;;7.30;99.90;;;;;;5092150;28;20730;-41
2022/04/25 04:12:32;;;;;;;13.50;9.55;;;7.40;99.90;;;;;;5104508;28;20072;-41
2022/04/25 04:14:58;;;;;;;13.45;9.60;;;7.40;99.90;;;;;;5094954;28;20032;-41
2022/04/25 04:17:24;;;;;;;19.00;10.45;;;7.50;99.90;;;;;;5101462;28;20020;-41
2022/04/25 04:19:53;;;;;;;13.73;9.10;;;7.50;99.90;;;;;;5098328;28;20059;-42
2022/04/25 04:22:21;;;;;;;13.10;10.20;;;7.60;99.90;;;;;;5099278;28;20023;-41
2022/04/25 04:24:47;;;;;;;13.50;10.13;;;7.70;99.90;;;;;;5099453;28;20028;-41
2022/04/25 04:27:14;;;;;;;12.35;9.50;;;7.70;99.90;;;;;;5098608;28;20516;-41
2022/04/25 04:29:40;;;;;;;12.73;8.90;;;7.80;99.90;;;;;;5100387;28;20051;-41
2022/04/25 04:32:06;;;;;;;12.43;10.23;;;7.80;99.90;;;;;;5094888;28;20020;-42
2022/04/25 04:34:34;;;;;;;13.18;10.15;;;7.80;99.90;;;;;;5102554;28;20048;-42
2022/04/25 04:37:00;;;;;;;11.70;9.00;;;7.90;99.90;;;;;;5093404;28;20027;-42
2022/04/25 04:39:28;;;;;;;12.45;9.27;;;7.90;99.90;;;;;;5102590;28;20023;-41
2022/04/25 04:41:53;;;;;;;12.77;9.68;;;7.90;99.90;;;;;;5093342;28;20502;-42
2022/04/25 04:44:19;;;;;;;13.10;9.32;;;7.90;99.90;;;;;;5104070;28;20036;-42
2022/04/25 04:46:45;;;;;;;13.45;9.68;;;8.00;99.90;;;;;;5091715;28;20024;-42
2022/04/25 04:49:10;;;;;;;15.40;10.15;;;8.10;99.90;;;;;;5104958;28;20020;-41
2022/04/25 04:51:36;;;;;;;14.40;9.30;;;8.10;99.90;;;;;;5090719;28;20031;-43
2022/04/25 04:54:02;;;;;;;14.57;9.63;;;8.10;99.90;;;;;;5105575;28;20016;-40
2022/04/25 04:56:29;;;;;;;14.07;10.15;;;8.10;99.90;;;;;;5093121;28;20560;-43
2022/04/25 04:58:55;;;;;;;15.00;10.38;;;8.10;99.90;;;;;;5102636;28;20042;-42
2022/04/25 05:01:20;;;;;;;17.48;10.68;;;8.20;99.90;;;;;;5096770;28;20454;-43
2022/04/25 05:03:46;;;;;;;14.40;10.50;;;8.20;99.90;;;;;;5099329;28;20031;-42
2022/04/25 05:06:12;;;;;;;15.85;11.15;;;8.30;99.90;;;;;;5099138;28;20371;-39
2022/04/25 05:08:38;;;;;;;13.90;10.63;;;8.30;99.90;;;;;;5097348;28;20019;-42
2022/04/25 05:11:04;;;;;;;19.27;11.40;;;8.30;99.90;;;;;;5101236;28;20362;-39
2022/04/25 05:13:31;;;;;;;16.80;11.02;;;8.30;99.90;;;;;;5094271;28;20016;-41
2022/04/25 05:15:56;;;;;;;15.10;10.88;;;8.40;99.90;;;;;;5103127;28;20538;-43
2022/04/25 05:18:22;;;;;;;17.30;10.73;;;8.40;99.90;;;;;;5091976;28;20157;-41
2022/04/25 05:20:47;;;;;;;16.23;12.27;;;8.40;99.90;;;;;;5105660;28;20089;-43
2022/04/25 05:23:13;;;;;;;15.68;11.27;;;8.50;99.90;;;;;;5097519;28;20018;-41
2022/04/25 05:25:39;;;;;;;15.90;11.88;;;8.50;99.90;;;;;;5107903;28;20035;-42
2022/04/25 05:28:06;;;;;;;15.85;11.20;;;8.50;99.90;;;;;;5095695;28;20121;-42
2022/04/25 05:30:32;;;;;;;16.52;12.30;;;8.50;99.90;;;;;;5093583;28;20043;-41
2022/04/25 05:33:02;;;;;;;14.13;11.82;;;8.50;99.90;;;;;;5099972;28;20087;-43
2022/04/25 05:35:29;;;;;;;14.90;12.40;;;8.50;99.90;;;;;;5087313;28;20560;-40
2022/04/25 05:37:56;;;;;;;16.50;12.82;;;8.50;99.90;;;;;;5099182;28;20062;-42
2022/04/25 05:40:22;;;;;;;18.27;13.27;;;8.60;99.90;;;;;;5088240;28;20039;-42
2022/04/25 05:42:49;;;;;;;19.23;13.57;;;8.60;99.90;;;;;;5096345;28;20019;-42
2022/04/25 05:45:18;;;;;;;17.42;12.20;;;8.60;99.90;;;;;;5087083;28;20053;-42
2022/04/25 05:47:43;;;;;;;18.60;13.48;;;8.60;99.90;;;;;;5089471;28;20489;-42
2022/04/25 05:52:59;;;;;;;15.65;12.65;;;8.70;99.90;;;;;;5097115;28;20047;-41
2022/04/25 05:55:25;;;;;;;18.83;15.35;;;8.70;99.90;;;;;;5100662;28;20112;-43
2022/04/25 05:57:51;;;;;;;22.40;15.80;;;8.70;99.90;;;;;;5099677;28;20051;-42
2022/04/25 06:00:17;;;;;;;17.77;14.45;;;8.70;99.90;;;;;;5098033;28;20814;-42
2022/04/25 06:02:44;;;;;;;18.00;14.80;;;8.70;99.90;;;;;;5104697;28;20103;-43
2022/04/25 06:05:11;;;;;;;20.45;16.25;;;8.80;99.90;;;;;;5096697;28;20038;-42
2022/04/25 06:07:41;;;;;;;23.98;16.80;;;8.80;99.90;;;;;;5104186;28;20092;-43
2022/04/25 06:10:08;;;;;;;20.02;15.07;;;8.80;99.90;;;;;;5095473;28;20019;-42
2022/04/25 06:12:45;;;;;;;22.10;16.20;;;8.80;99.90;;;;;;5105042;28;20042;-42
2022/04/25 06:15:11;;;;;;;19.85;16.38;;;8.90;99.90;;;;;;5095131;28;20094;-42
2022/04/25 06:17:37;;;;;;;19.25;15.35;;;8.90;99.90;;;;;;5104932;28;20040;-43
2022/04/25 06:20:05;;;;;;;18.13;14.20;;;8.90;99.90;;;;;;5095487;28;20026;-39
2022/04/25 06:22:30;;;;;;;17.80;14.85;;;9.00;99.90;;;;;;5106137;28;20067;-42
2022/04/25 06:24:56;;;;;;;18.90;14.95;;;9.00;99.90;;;;;;5091972;28;20063;-43
2022/04/25 06:27:22;;;;;;;19.40;16.02;;;9.10;99.90;;;;;;5092957;28;20028;-41
2022/04/25 06:29:47;;;;;;;23.48;16.65;;;9.10;99.90;;;;;;5092350;28;20025;-41
2022/04/25 06:32:13;;;;;;;19.35;15.02;;;9.20;99.90;;;;;;5094937;28;20053;-42
2022/04/25 06:34:40;;;;;;;20.08;15.70;;;9.20;99.90;;;;;;5095065;28;20028;-45
2022/04/25 06:37:06;;;;;;;25.00;17.48;;;9.30;99.90;;;;;;5094083;28;20096;-43
2022/04/25 06:39:32;;;;;;;21.83;17.38;;;9.30;99.90;;;;;;5094983;28;20112;-41
2022/04/25 06:41:58;;;;;;;23.20;16.58;;;9.40;99.90;;;;;;5093781;28;20524;-43
2022/04/25 06:44:24;;;;;;;18.00;14.60;;;9.40;99.90;;;;;;5094064;28;20039;-45
2022/04/25 06:46:49;;;;;;;20.73;15.60;;;9.50;99.90;;;;;;5093679;28;20027;-42
2022/04/25 06:49:23;;;;;;;22.02;16.77;;;9.50;99.90;;;;;;5092817;28;20401;-42
2022/04/25 06:51:56;;;;;;;19.98;14.70;;;9.50;99.90;;;;;;5094102;28;20036;-43
2022/04/25 06:54:25;;;;;;;18.70;15.75;;;9.50;99.90;;;;;;5094365;28;20031;-41
2022/04/25 06:56:52;;;;;;;18.02;14.10;;;9.50;99.90;;;;;;5092370;28;20083;-43
2022/04/25 06:59:19;;;;;;;19.48;14.68;;;9.50;99.90;;;;;;5092726;28;20057;-43
2022/04/25 07:01:48;;;;;;;15.40;13.75;;;9.60;99.90;;;;;;5092911;28;20028;-42
2022/04/25 07:04:15;;;;;;;17.73;13.07;;;9.60;99.90;;;;;;5091259;28;20051;-43
2022/04/25 07:06:41;;;;;;;18.73;13.80;;;9.50;99.90;;;;;;5091518;28;20571;-42
2022/04/25 07:09:07;;;;;;;17.95;14.40;;;9.50;99.90;;;;;;5093180;28;20036;-42
2022/04/25 07:11:33;;;;;;;16.35;13.55;;;9.40;99.90;;;;;;5091847;28;20035;-42
2022/04/25 07:14:03;;;;;;;20.50;15.05;;;9.40;99.90;;;;;;5095553;28;20019;-43
2022/04/25 07:16:29;;;;;;;18.42;14.52;;;9.40;99.90;;;;;;5092109;28;20387;-46
2022/04/25 07:18:55;;;;;;;16.60;13.48;;;9.40;99.90;;;;;;5095018;28;20035;-42
2022/04/25 07:29:33;;;;;;;15.40;11.85;;;9.30;99.90;;;;;;5092790;28;20059;-42
2022/04/25 07:31:58;;;;;;;18.33;14.50;;;9.20;99.90;;;;;;5092751;28;20687;-43
2022/04/25 07:34:24;;;;;;;17.17;13.80;;;9.20;99.90;;;;;;5094576;28;20028;-41
2022/04/25 07:36:53;;;;;;;17.33;14.57;;;9.10;99.90;;;;;;5092925;28;20031;-42
2022/04/25 07:39:19;;;;;;;14.52;12.88;;;9.00;99.90;;;;;;5092129;28;20491;-43
2022/04/25 07:41:46;;;;;;;22.05;16.30;;;9.00;99.90;;;;;;5091686;28;20042;-43
2022/04/25 07:44:11;;;;;;;19.42;14.82;;;9.00;99.90;;;;;;5090863;28;20035;-42
2022/04/25 07:46:40;;;;;;;21.25;16.77;;;8.90;99.90;;;;;;5088583;28;20027;-45
2022/04/25 07:49:07;;;;;;;19.70;15.32;;;8.90;99.90;;;;;;5094356;28;20035;-43
2022/04/25 07:51:32;;;;;;;20.70;15.77;;;8.90;99.90;;;;;;5092655;28;20026;-40
2022/04/25 07:53:58;;;;;;;19.27;15.98;;;8.90;99.90;;;;;;5094034;28;20024;-43
2022/04/25 07:56:24;;;;;;;21.30;15.57;;;8.90;99.90;;;;;;5092771;28;20495;-42
2022/04/25 07:58:49;;;;;;;19.88;14.52;;;8.90;99.90;;;;;;5092901;28;20030;-42
2022/04/25 08:01:15;;;;;;;19.08;15.43;;;8.90;99.90;;;;;;5092619;28;20036;-42
2022/04/25 08:03:41;;;;;;;19.90;14.90;;;8.90;99.90;;;;;;5095544;28;20032;-43
2022/04/25 08:06:06;;;;;;;18.67;15.77;;;8.90;99.90;;;;;;5093318;28;20489;-41
2022/04/25 08:08:32;;;;;;;18.67;14.20;;;8.90;99.90;;;;;;5093809;28;20024;-42
2022/04/25 08:10:58;;;;;;;20.80;15.68;;;8.90;99.90;;;;;;5092676;28;20725;-43
2022/04/25 08:18:52;;;;;;;23.33;17.58;;;9.00;99.90;;;;;;5093456;28;20940;-42
2022/04/25 08:21:18;;;;;;;24.15;18.05;;;9.00;99.90;;;;;;5092790;28;20416;-41
2022/04/25 08:23:45;;;;;;;21.63;17.33;;;9.00;99.90;;;;;;5093396;28;20080;-41
2022/04/25 08:26:11;;;;;;;20.60;15.95;;;9.00;99.90;;;;;;5093288;28;20032;-42
2022/04/25 08:28:37;;;;;;;20.83;16.48;;;9.10;99.90;;;;;;5091784;28;20164;-42
2022/04/25 08:31:03;;;;;;;22.35;16.73;;;9.10;99.90;;;;;;5094762;28;20115;-41
2022/04/25 08:33:30;;;;;;;19.75;15.95;;;9.10;99.90;;;;;;5094571;28;20023;-41
2022/04/25 08:35:57;;;;;;;17.75;14.30;;;9.20;99.90;;;;;;5092925;28;20039;-43
2022/04/25 08:38:23;;;;;;;20.45;15.38;;;9.30;99.90;;;;;;5094491;28;20119;-44
2022/04/25 08:40:49;;;;;;;22.92;16.00;;;9.30;99.90;;;;;;5093417;28;20110;-42
2022/04/25 08:43:15;;;;;;;18.42;15.13;;;9.40;99.90;;;;;;5093604;28;20046;-41
2022/04/25 08:45:41;;;;;;;23.88;17.15;;;9.40;99.90;;;;;;5092726;28;20039;-40
2022/04/25 08:48:07;;;;;;;26.08;18.70;;;9.40;99.90;;;;;;5093399;28;20040;-42
2022/04/25 08:50:32;;;;;;;24.77;18.25;;;9.40;99.90;;;;;;5089670;28;20109;-42
2022/04/25 08:52:59;;;;;;;24.80;19.58;;;9.40;99.90;;;;;;5094440;28;21074;-42
2022/04/25 08:55:26;;;;;;;23.85;18.67;;;9.40;99.90;;;;;;5095425;28;20096;-40
2022/04/25 08:57:54;;;;;;;23.33;18.40;;;9.40;99.90;;;;;;5094119;28;20059;-43
2022/04/25 09:00:19;;;;;;;24.92;18.67;;;9.40;99.90;;;;;;5095840;28;20059;-41
2022/04/25 09:02:47;;;;;;;22.65;17.35;;;9.40;99.90;;;;;;5096405;28;20048;-42
2022/04/25 09:05:13;;;;;;;26.45;19.40;;;9.50;99.90;;;;;;5096477;28;20118;-42
2022/04/25 09:07:40;;;;;;;30.25;20.55;;;9.60;99.90;;;;;;5096613;28;20020;-43
2022/04/25 09:10:10;;;;;;;24.60;18.88;;;9.60;99.90;;;;;;5095820;28;20046;-42
2022/04/25 09:12:36;;;;;;;26.08;18.02;;;9.70;99.90;;;;;;5094797;28;20039;-42
2022/04/25 09:15:04;;;;;;;26.05;19.05;;;9.80;99.90;;;;;;5095342;28;20039;-41
2022/04/25 09:17:30;;;;;;;23.65;18.88;;;9.90;99.90;;;;;;5094721;28;20524;-40
2022/04/25 09:19:55;;;;;;;21.67;17.55;;;10.00;99.90;;;;;;5095411;28;20035;-42
2022/04/25 09:22:36;;;;;;;23.58;18.40;;;10.10;99.90;;;;;;5096402;28;20032;-40
2022/04/25 09:25:10;;;;;;;26.00;19.00;;;10.20;99.90;;;;;;5092914;28;20035;-43
2022/04/25 09:27:37;;;;;;;22.48;17.70;;;10.20;99.90;;;;;;5094763;28;20020;-43
2022/04/25 09:30:16;;;;;;;22.58;15.77;;;10.20;99.90;;;;;;5094617;28;20027;-41
2022/04/25 09:32:43;;;;;;;26.90;17.58;;;10.20;99.90;;;;;;5093521;28;20123;-42
2022/04/25 09:35:51;;;;;;;25.48;17.38;;;10.20;99.90;;;;;;5096721;28;20023;-43
2022/04/25 09:38:31;;;;;;;28.33;19.17;;;10.20;99.90;;;;;;4994576;28;20041;-42
2022/04/25 09:40:57;;;;;;;27.40;19.63;;;10.20;99.90;;;;;;5089460;28;20504;-43
2022/04/25 09:43:32;;;;;;;26.48;18.50;;;10.30;99.90;;;;;;5096497;28;20030;-42
2022/04/25 09:46:06;;;;;;;22.15;17.17;;;10.30;99.90;;;;;;5095440;28;20054;-43
2022/04/25 09:48:31;;;;;;;24.95;18.90;;;10.30;99.90;;;;;;5094802;28;20399;-41
2022/04/25 09:51:08;;;;;;;26.40;20.40;;;10.30;99.90;;;;;;5095200;28;20020;-42
2022/04/25 09:53:44;;;;;;;24.02;18.70;;;10.30;99.90;;;;;;5094972;28;20061;-43
2022/04/25 09:56:16;;;;;;;22.00;17.52;;;10.30;99.90;;;;;;5094383;28;20030;-44
2022/04/25 09:58:43;;;;;;;25.15;18.48;;;10.40;99.90;;;;;;5096048;28;20046;-42
2022/04/25 10:01:14;;;;;;;25.60;18.35;;;10.40;99.90;;;;;;5094726;28;20079;-42
2022/04/25 10:03:41;;;;;;;20.20;16.15;;;10.40;99.90;;;;;;5094402;28;20038;-44
2022/04/25 10:06:07;;;;;;;24.45;17.52;;;10.40;99.90;;;;;;5091422;28;20042;-42
2022/04/25 10:08:35;;;;;;;24.27;18.00;;;10.40;99.90;;;;;;5092138;28;20443;-42
2022/04/25 10:11:06;;;;;;;23.98;17.83;;;10.40;99.90;;;;;;5094412;28;20114;-40
2022/04/25 10:13:32;;;;;;;20.73;15.48;;;10.40;99.90;;;;;;5092627;28;20100;-43
2022/04/25 10:16:01;;;;;;;24.10;18.50;;;10.40;99.90;;;;;;5095548;28;20029;-41
2022/04/25 10:18:30;;;;;;;25.75;19.25;;;10.40;99.90;;;;;;5096107;28;20027;-42
2022/04/25 10:20:56;;;;;;;25.85;18.63;;;10.30;99.90;;;;;;5093774;28;20115;-43
2022/04/25 10:23:25;;;;;;;24.23;17.85;;;10.30;99.90;;;;;;5097373;28;20495;-44
2022/04/25 10:25:56;;;;;;;22.90;17.58;;;10.30;99.90;;;;;;5092348;28;20067;-43
2022/04/25 10:28:41;;;;;;;21.23;16.52;;;10.30;99.90;;;;;;5093676;28;20028;-45
2022/04/25 10:31:11;;;;;;;19.45;14.52;;;10.30;99.90;;;;;;5094928;28;20023;-42
2022/04/25 10:33:48;;;;;;;20.88;16.50;;;10.30;99.90;;;;;;5095518;28;20031;-43
2022/04/25 10:36:39;;;;;;;20.50;15.25;;;10.40;99.90;;;;;;5094628;28;20031;-42
2022/04/25 10:39:15;;;;;;;18.60;14.45;;;10.40;99.90;;;;;;5096528;28;20041;-42
2022/04/25 10:44:43;;;;;;;19.95;15.10;;;10.50;99.90;;;;;;5094063;28;20042;-42
2022/04/25 10:47:13;;;;;;;16.65;13.45;;;10.50;99.90;;;;;;5093141;28;20027;-42
2022/04/25 10:49:45;;;;;;;19.27;14.85;;;10.60;99.90;;;;;;5094027;28;20670;-43
2022/04/25 10:52:42;;;;;;;17.88;13.32;;;10.60;99.90;;;;;;5095337;28;20102;-44
2022/04/25 10:55:34;;;;;;;18.60;14.85;;;10.70;99.90;;;;;;5093890;28;20043;-43
2022/04/25 10:58:02;;;;;;;19.00;13.52;;;10.70;99.90;;;;;;5094133;28;20046;-43
2022/04/25 11:00:40;;;;;;;19.38;14.88;;;10.70;99.90;;;;;;5094633;28;20100;-43
2022/04/25 11:03:12;;;;;;;20.73;14.15;;;10.80;99.90;;;;;;5094019;28;20160;-43
2022/04/25 11:05:43;;;;;;;16.73;12.88;;;10.90;99.90;;;;;;5097205;28;20044;-40
2022/04/25 11:08:23;;;;;;;18.42;14.75;;;11.00;99.90;;;;;;5097203;28;20051;-42
2022/04/25 11:11:11;;;;;;;18.13;14.15;;;11.10;99.90;;;;;;5096263;28;20419;-41
2022/04/25 11:13:56;;;;;;;21.20;16.15;;;11.20;99.90;;;;;;5093630;28;20560;-42
2022/04/25 11:16:25;;;;;;;18.30;13.90;;;11.10;99.90;;;;;;5093564;28;20028;-42
2022/04/25 11:19:23;;;;;;;19.33;13.80;;;11.10;99.90;;;;;;5092124;28;20035;-43
2022/04/25 11:21:55;;;;;;;14.27;12.25;;;11.00;99.90;;;;;;5094563;28;20031;-42
2022/04/25 11:24:27;;;;;;;16.55;11.95;;;11.00;99.90;;;;;;5093156;28;20127;-43
2022/04/25 11:26:53;;;;;;;14.30;11.48;;;11.00;99.90;;;;;;5093527;28;20063;-41
2022/04/25 11:29:19;;;;;;;15.77;12.13;;;11.00;99.90;;;;;;5094538;28;20030;-42
2022/04/25 11:31:44;;;;;;;15.48;11.75;;;11.00;99.90;;;;;;5088757;28;20028;-43
2022/04/25 11:34:14;;;;;;;14.18;11.75;;;11.00;99.90;;;;;;5092565;28;20506;-40
2022/04/25 11:36:41;;;;;;;14.98;11.90;;;11.10;99.90;;;;;;5092662;28;20046;-43
2022/04/25 11:41:55;;;;;;;16.23;13.35;;;11.20;99.90;;;;;;5093131;28;20192;-42
2022/04/25 11:44:20;;;;;;;13.88;11.40;;;11.20;99.90;;;;;;5094064;28;20127;-42
2022/04/25 11:46:47;;;;;;;12.95;11.15;;;11.20;99.90;;;;;;5093247;28;20064;-43
2022/04/25 11:49:25;;;;;;;15.48;12.18;;;11.20;99.90;;;;;;5093723;28;20016;-42
2022/04/25 11:51:53;;;;;;;14.20;12.10;;;11.20;99.90;;;;;;5092558;28;20092;-44
2022/04/25 11:54:18;;;;;;;17.95;13.13;;;11.20;99.90;;;;;;5095524;28;20023;-42
2022/04/25 11:56:44;;;;;;;16.33;11.93;;;11.30;99.90;;;;;;5092356;28;20060;-43
2022/04/25 11:59:15;;;;;;;13.13;11.13;;;11.30;99.90;;;;;;5093782;28;20127;-43
2022/04/25 12:01:47;;;;;;;12.95;10.90;;;11.30;99.90;;;;;;5092683;28;20109;-43
2022/04/25 12:04:18;;;;;;;15.52;11.48;;;11.40;99.90;;;;;;5093066;28;20370;-41
2022/04/25 12:07:11;;;;;;;16.58;12.23;;;11.40;99.90;;;;;;5091006;28;20502;-42
2022/04/25 12:15:42;;;;;;;15.60;12.00;;;11.30;99.90;;;;;;5091234;28;20113;-44
2022/04/25 12:18:19;;;;;;;18.25;13.73;;;11.30;99.90;;;;;;5092003;28;20266;-42
2022/04/25 12:20:50;;;;;;;16.35;12.60;;;11.30;99.90;;;;;;5092725;28;20030;-43
2022/04/25 12:23:27;;;;;;;17.45;12.23;;;11.40;99.90;;;;;;5092842;28;20059;-43
2022/04/25 12:25:53;;;;;;;13.93;11.05;;;11.60;99.90;;;;;;5092648;28;20463;-42
2022/04/25 12:28:24;;;;;;;11.70;10.10;;;11.70;99.90;;;;;;5091966;28;20061;-43
2022/04/25 12:30:53;;;;;;;15.90;11.60;;;11.80;99.90;;;;;;5092599;28;20118;-42
2022/04/25 12:33:21;;;;;;;14.27;11.63;;;12.00;99.90;;;;;;5093376;28;20024;-43
2022/04/25 12:35:48;;;;;;;15.63;10.95;;;12.10;99.90;;;;;;5092502;28;20027;-42
2022/04/25 12:38:36;;;;;;;15.13;11.43;;;12.10;99.90;;;;;;5092804;28;20050;-43
2022/04/25 12:41:02;;;;;;;14.90;12.05;;;12.20;99.90;;;;;;5092346;28;20031;-44
2022/04/25 12:43:54;;;;;;;13.10;10.95;;;12.20;99.90;;;;;;5092404;28;20428;-43
2022/04/25 12:46:40;;;;;;;16.52;11.93;;;12.20;99.90;;;;;;5088578;28;20077;-42
2022/04/25 12:49:11;;;;;;;19.02;12.68;;;12.10;99.90;;;;;;5092581;28;20032;-42
2022/04/25 12:51:45;;;;;;;18.25;11.65;;;12.00;99.90;;;;;;5091155;28;20118;-42
2022/04/25 12:54:21;;;;;;;15.77;11.50;;;11.90;99.90;;;;;;5094507;28;20059;-44
2022/04/25 12:56:49;;;;;;;14.05;11.55;;;11.80;99.90;;;;;;5090800;28;20096;-42
2022/04/25 12:59:24;;;;;;;13.98;10.88;;;11.80;99.90;;;;;;5091965;28;20383;-42
2022/04/25 13:02:00;;;;;;;16.25;10.50;;;11.70;99.90;;;;;;5092336;28;20035;-43
2022/04/25 13:04:25;;;;;;;14.60;11.73;;;11.70;99.90;;;;;;5091990;28;20027;-42
2022/04/25 13:06:51;;;;;;;15.45;11.63;;;11.70;99.90;;;;;;5089964;28;20020;-43
2022/04/25 13:09:16;;;;;;;18.73;12.32;;;11.70;99.90;;;;;;5096008;28;20008;-42
2022/04/25 13:11:42;;;;;;;19.13;11.50;;;11.60;99.90;;;;;;5101589;28;20395;-42
2022/04/25 13:14:08;;;;;;;15.55;12.38;;;11.60;99.90;;;;;;5094984;28;20126;-42
2022/04/25 13:16:33;;;;;;;15.85;12.40;;;11.60;99.90;;;;;;5082466;28;20024;-41
2022/04/25 13:18:59;;;;;;;13.25;11.02;;;11.50;99.90;;;;;;5096565;28;20036;-41